createdAt,value
2023-01-05T00:01:07.495Z,101566.72
2023-01-05T00:03:36.096Z,101565.53
2023-01-05T00:06:08.113Z,101565.44
2023-01-05T00:08:37.671Z,101557.47
2023-01-05T00:11:35.601Z,101546.72
2023-01-05T00:14:25.193Z,101539.94
2023-01-05T00:17:11.812Z,101534.56
2023-01-05T00:20:16.210Z,101524.91
2023-01-05T00:22:48.502Z,101525.63
2023-01-05T00:25:17.945Z,101521.31
2023-01-05T00:27:46.407Z,101514.66
2023-01-05T00:30:15.577Z,101512.72
2023-01-05T00:32:43.760Z,101511.56
2023-01-05T00:35:11.805Z,101511.13
2023-01-05T00:37:40.146Z,101508.25
2023-01-05T00:40:12.140Z,101498.91
2023-01-05T00:42:39.851Z,101505.81
2023-01-05T00:45:08.741Z,101505.69
2023-01-05T00:47:36.687Z,101503.88
2023-01-05T00:50:04.949Z,101490.00
2023-01-05T00:52:32.763Z,101495.72
2023-01-05T00:55:02.654Z,101495.91
2023-01-05T00:57:31.298Z,101488.84
2023-01-05T00:59:59.470Z,101472.00
2023-01-05T01:02:27.513Z,101480.47
2023-01-05T01:04:57.841Z,101465.97
2023-01-05T01:07:25.881Z,101469.31
2023-01-05T01:09:53.660Z,101465.00
2023-01-05T01:12:21.440Z,101472.63
2023-01-05T01:14:49.599Z,101471.66
2023-01-05T01:17:17.561Z,101451.34
2023-01-05T01:19:46.928Z,101447.28
2023-01-05T01:22:14.872Z,101445.69
2023-01-05T01:24:42.691Z,101438.91
2023-01-05T01:27:11.110Z,101428.91
2023-01-05T01:29:39.879Z,101423.53
2023-01-05T01:32:07.839Z,101432.97
2023-01-05T01:34:35.881Z,101417.94
2023-01-05T01:37:03.705Z,101417.78
2023-01-05T01:39:37.649Z,101408.44
2023-01-05T01:42:15.898Z,101392.72
2023-01-05T01:44:48.157Z,101379.78
2023-01-05T01:47:46.357Z,101373.03
2023-01-05T01:50:23.237Z,101373.47
2023-01-05T01:52:51.646Z,101374.19
2023-01-05T01:55:19.572Z,101367.88
2023-01-05T01:57:48.084Z,101371.63
2023-01-05T02:00:17.323Z,101364.19
2023-01-05T02:02:53.888Z,101377.72
2023-01-05T02:05:29.655Z,101384.34
2023-01-05T02:07:58.686Z,101383.25
2023-01-05T02:10:50.994Z,101376.56
2023-01-05T02:13:46.589Z,101373.03
2023-01-05T02:16:36.153Z,101368.50
2023-01-05T02:19:19.824Z,101366.19
2023-01-05T02:22:02.776Z,101361.34
2023-01-05T02:25:09.070Z,101354.13
2023-01-05T02:28:18.903Z,101353.41
2023-01-05T02:31:08.897Z,101341.91
2023-01-05T02:34:07.728Z,101348.38
2023-01-05T02:36:44.663Z,101336.88
2023-01-05T02:39:21.866Z,101346.53
2023-01-05T02:42:06.055Z,101333.84
2023-01-05T02:44:35.644Z,101330.63
2023-01-05T02:47:08.079Z,101326.94
2023-01-05T02:49:38.456Z,101328.91
2023-01-05T02:52:08.437Z,101319.88
2023-01-05T02:54:48.053Z,101319.00
2023-01-05T02:57:18.338Z,101312.53
2023-01-05T02:59:51.400Z,101305.19
2023-01-05T03:02:21.769Z,101304.59
2023-01-05T03:05:13.735Z,101294.44
2023-01-05T03:07:42.966Z,101288.47
2023-01-05T03:10:31.533Z,101285.50
2023-01-05T03:13:20.337Z,101273.16
2023-01-05T03:15:48.698Z,101283.66
2023-01-05T03:18:18.535Z,101280.03
2023-01-05T03:20:51.511Z,101273.66
2023-01-05T03:23:38.073Z,101270.97
2023-01-05T03:26:26.463Z,101281.34
2023-01-05T03:29:15.770Z,101269.28
2023-01-05T03:32:20.055Z,101269.50
2023-01-05T03:35:18.183Z,101264.00
2023-01-05T03:37:54.094Z,101265.84
2023-01-05T03:40:32.057Z,101270.72
2023-01-05T03:43:00.302Z,101255.09
2023-01-05T03:45:39.243Z,101263.25
2023-01-05T03:48:08.264Z,101256.91
2023-01-05T03:50:37.054Z,101249.06
2023-01-05T03:53:05.610Z,101248.56
2023-01-05T03:55:34.202Z,101247.03
2023-01-05T03:58:02.173Z,101241.38
2023-01-05T04:00:30.713Z,101246.25
2023-01-05T04:03:05.206Z,101242.97
2023-01-05T04:05:33.252Z,101236.84
2023-01-05T04:08:02.251Z,101232.06
2023-01-05T04:10:30.499Z,101231.28
2023-01-05T04:13:02.020Z,101215.88
2023-01-05T04:15:30.945Z,101220.53
2023-01-05T04:17:59.468Z,101222.34
2023-01-05T04:20:27.459Z,101226.28
2023-01-05T04:22:58.683Z,101219.81
2023-01-05T04:25:27.369Z,101224.72
2023-01-05T04:27:55.693Z,101229.75
2023-01-05T04:30:24.107Z,101218.75
2023-01-05T04:32:51.963Z,101213.75
2023-01-05T04:35:19.839Z,101204.72
2023-01-05T04:37:49.570Z,101207.69
2023-01-05T04:40:18.265Z,101205.47
2023-01-05T04:42:51.419Z,101197.28
2023-01-05T04:45:19.785Z,101195.94
2023-01-05T04:47:48.137Z,101183.81
2023-01-05T04:50:21.201Z,101181.41
2023-01-05T04:52:50.463Z,101181.16
2023-01-05T04:55:21.018Z,101171.13
2023-01-05T04:57:49.096Z,101164.88
2023-01-05T05:00:19.756Z,101156.81
2023-01-05T05:02:51.890Z,101165.25
2023-01-05T05:05:20.405Z,101159.50
2023-01-05T05:07:52.032Z,101159.00
2023-01-05T05:10:20.130Z,101153.38
2023-01-05T05:12:49.185Z,101140.28
2023-01-05T05:15:17.270Z,101132.97
2023-01-05T05:17:48.712Z,101126.00
2023-01-05T05:20:19.384Z,101121.22
2023-01-05T05:22:47.331Z,101115.09
2023-01-05T05:25:18.549Z,101111.53
2023-01-05T05:27:51.739Z,101103.97
2023-01-05T05:30:19.820Z,101091.00
2023-01-05T05:32:48.027Z,101095.41
2023-01-05T05:35:20.059Z,101079.00
2023-01-05T05:37:52.944Z,101072.66
2023-01-05T05:40:26.596Z,101067.75
2023-01-05T05:42:57.086Z,101070.47
2023-01-05T05:45:25.301Z,101072.19
2023-01-05T05:47:53.058Z,101064.69
2023-01-05T05:50:21.498Z,101063.09
2023-01-05T05:52:49.578Z,101053.78
2023-01-05T05:55:17.996Z,101039.75
2023-01-05T05:57:46.388Z,101052.66
2023-01-05T06:00:15.135Z,101043.38
2023-01-05T06:02:43.202Z,101041.03
2023-01-05T06:05:11.302Z,101040.56
2023-01-05T06:07:40.641Z,101038.47
2023-01-05T06:10:09.351Z,101018.84
2023-01-05T06:12:37.788Z,101023.91
2023-01-05T06:15:06.626Z,101024.84
2023-01-05T06:17:35.048Z,101019.53
2023-01-05T06:20:03.367Z,101020.41
2023-01-05T06:22:31.788Z,101002.28
2023-01-05T06:24:59.712Z,100996.34
2023-01-05T06:27:31.390Z,100976.31
2023-01-05T06:30:04.518Z,100993.28
2023-01-05T06:32:34.026Z,100978.81
2023-01-05T06:35:05.035Z,100976.00
2023-01-05T06:37:34.147Z,100967.84
2023-01-05T06:40:06.499Z,100968.31
2023-01-05T06:42:34.530Z,100960.94
2023-01-05T06:45:02.577Z,100955.88
2023-01-05T06:47:31.372Z,100949.88
2023-01-05T06:49:59.981Z,100933.50
2023-01-05T06:52:27.898Z,100918.34
2023-01-05T06:54:55.670Z,100907.69
2023-01-05T06:57:26.125Z,100903.06
2023-01-05T06:59:53.967Z,100912.72
2023-01-05T10:24:56.756Z,100329.91
2023-01-05T10:27:30.543Z,100314.63
2023-01-05T10:30:07.723Z,100311.00
2023-01-05T10:33:22.017Z,100301.69
2023-01-05T10:36:00.572Z,100293.19
2023-01-05T10:38:35.780Z,100293.63
2023-01-05T10:41:10.124Z,100280.44
2023-01-05T10:43:59.974Z,100278.03
2023-01-05T10:46:37.772Z,100267.63
2023-01-05T10:49:08.693Z,100261.84
2023-01-05T10:51:36.341Z,100247.47
2023-01-05T10:54:04.203Z,100244.66
2023-01-05T10:56:33.280Z,100230.34
2023-01-05T10:59:11.990Z,100225.06
2023-01-05T11:01:43.843Z,100221.75
2023-01-05T11:04:33.909Z,100216.69
2023-01-05T11:07:06.388Z,100220.09
2023-01-05T11:09:33.945Z,100226.03
2023-01-05T11:12:02.664Z,100227.03
2023-01-05T11:14:36.507Z,100223.69
2023-01-05T11:17:06.070Z,100219.09
2023-01-05T11:19:37.296Z,100208.41
2023-01-05T11:22:05.188Z,100205.91
2023-01-05T11:24:34.507Z,100185.31
2023-01-05T11:27:03.772Z,100182.63
2023-01-05T11:29:31.346Z,100172.00
2023-01-05T11:32:06.374Z,100172.69
2023-01-05T11:34:41.963Z,100164.94
2023-01-05T11:37:17.715Z,100154.78
2023-01-05T11:39:46.266Z,100157.50
2023-01-05T11:42:25.286Z,100159.72
2023-01-05T11:45:00.991Z,100146.38
2023-01-05T11:47:37.999Z,100139.31
2023-01-05T11:50:14.709Z,100144.19
2023-01-05T11:52:51.349Z,100149.78
2023-01-05T11:55:41.463Z,100129.00
2023-01-05T11:58:24.871Z,100119.38
2023-01-05T12:01:14.235Z,100108.38
2023-01-05T12:03:44.947Z,100109.25
2023-01-05T12:06:54.014Z,100096.75
2023-01-05T12:09:35.147Z,100085.59
2023-01-05T12:12:18.800Z,100071.75
2023-01-05T12:14:46.815Z,100073.78
2023-01-05T12:17:16.018Z,100069.56
2023-01-05T12:19:55.267Z,100061.47
2023-01-05T12:22:55.773Z,100050.28
2023-01-05T12:25:41.504Z,100057.38
2023-01-05T12:28:41.142Z,100043.19
2023-01-05T12:34:00.573Z,100039.78
2023-01-05T12:34:53.086Z,100030.84
2023-01-05T12:37:29.565Z,100022.91
2023-01-05T12:40:02.979Z,100019.00
2023-01-05T12:42:49.371Z,100015.28
2023-01-05T12:45:31.455Z,100027.25
2023-01-05T12:48:08.938Z,100023.72
2023-01-05T12:50:43.973Z,100023.88
2023-01-05T12:53:40.847Z,100020.19
2023-01-05T12:56:21.681Z,100005.59
2023-01-05T12:58:54.460Z,100010.34
2023-01-05T13:01:27.372Z,99996.81
2023-01-05T13:04:02.889Z,100002.56
2023-01-05T13:06:34.646Z,100000.53
2023-01-05T13:09:04.642Z,99994.44
2023-01-05T13:11:36.477Z,99999.19
2023-01-05T13:14:18.513Z,99983.09
2023-01-05T13:16:48.968Z,99990.34
2023-01-05T13:19:37.086Z,99977.66
2023-01-05T13:22:07.169Z,99975.13
2023-01-05T13:24:39.443Z,99960.44
2023-01-05T13:27:07.217Z,99950.06
2023-01-05T13:29:36.822Z,99948.06
2023-01-05T13:32:13.481Z,99939.41
2023-01-05T13:34:59.677Z,99929.13
2023-01-05T13:37:36.324Z,99938.09
2023-01-05T13:40:03.970Z,99926.91
2023-01-05T13:42:54.299Z,99923.00
2023-01-05T13:45:43.812Z,99921.00
2023-01-05T13:48:45.295Z,99929.09
2023-01-05T13:51:40.937Z,99936.16
2023-01-05T13:54:17.694Z,99927.72
2023-01-05T13:56:46.941Z,99904.75
2023-01-05T13:59:29.137Z,99912.56
2023-01-05T14:02:42.299Z,99903.41
2023-01-05T14:05:32.518Z,99889.41
2023-01-05T14:08:04.790Z,99887.19
2023-01-05T14:10:33.285Z,99904.28
2023-01-05T14:13:02.006Z,99889.91
2023-01-05T14:15:42.471Z,99880.81
2023-01-05T14:18:10.752Z,99884.56
2023-01-05T14:20:46.940Z,99865.31
2023-01-05T14:23:24.040Z,99864.59
2023-01-05T14:25:52.943Z,99866.81
2023-01-05T14:28:35.580Z,99857.34
2023-01-05T14:31:16.382Z,99858.38
2023-01-05T14:33:57.928Z,99857.88
2023-01-05T14:36:30.401Z,99848.25
2023-01-05T14:38:58.832Z,99838.81
2023-01-05T14:41:27.963Z,99836.94
2023-01-05T14:44:03.001Z,99831.84
2023-01-05T14:46:44.476Z,99829.84
2023-01-05T14:49:29.630Z,99828.44
2023-01-05T14:52:01.539Z,99833.41
2023-01-05T14:54:36.621Z,99826.09
2023-01-05T14:57:26.076Z,99816.97
2023-01-05T15:00:11.603Z,99809.88
2023-01-05T15:02:46.799Z,99814.59
2023-01-05T15:05:16.692Z,99800.44
2023-01-05T15:08:26.220Z,99797.72
2023-01-05T15:11:32.236Z,99787.78
2023-01-05T15:14:37.527Z,99792.34
2023-01-05T15:17:48.116Z,99778.47
2023-01-05T15:20:25.361Z,99783.69
2023-01-05T15:23:18.051Z,99777.91
2023-01-05T15:26:03.151Z,99785.69
2023-01-05T15:29:06.762Z,99759.34
2023-01-05T15:31:47.510Z,99769.28
2023-01-05T15:34:22.100Z,99762.88
2023-01-05T15:36:55.135Z,99755.09
2023-01-05T15:39:28.051Z,99789.25
2023-01-05T15:41:58.091Z,99753.06
2023-01-05T15:44:29.042Z,99778.59
2023-01-05T15:46:56.698Z,99770.81
2023-01-05T15:49:29.281Z,99774.31
2023-01-05T15:51:57.043Z,99784.06
2023-01-05T15:54:30.125Z,99771.56
2023-01-05T15:56:59.117Z,99789.97
2023-01-05T15:59:39.851Z,99783.06
2023-01-05T16:02:22.805Z,99769.88
2023-01-05T16:05:16.839Z,99761.09
2023-01-05T16:07:49.775Z,99747.03
2023-01-05T19:58:00.109Z,99643.91
2023-01-05T20:00:28.182Z,99634.97
2023-01-05T20:02:56.044Z,99646.88
2023-01-05T20:05:23.716Z,99647.06
2023-01-05T20:07:51.524Z,99647.34
2023-01-05T20:10:20.411Z,99643.97
2023-01-05T20:12:49.362Z,99649.94
2023-01-05T20:15:17.358Z,99647.41
2023-01-05T20:17:45.937Z,99652.94
2023-01-05T20:20:13.773Z,99638.75
2023-01-05T20:22:41.455Z,99648.91
2023-01-05T20:25:09.501Z,99630.63
2023-01-05T20:27:37.127Z,99637.00
2023-01-05T20:30:05.202Z,99641.75
2023-01-05T20:32:34.945Z,99634.28
2023-01-05T20:35:02.871Z,99634.66
2023-01-05T20:37:31.995Z,99638.84
2023-01-05T20:40:01.138Z,99626.91
2023-01-05T20:42:29.656Z,99634.19
2023-01-05T20:44:57.419Z,99637.34
2023-01-05T20:47:25.440Z,99637.19
2023-01-05T20:49:53.659Z,99632.78
2023-01-05T20:52:21.338Z,99642.97
2023-01-05T20:54:49.827Z,99629.56
2023-01-05T20:57:17.625Z,99625.72
2023-01-05T20:59:45.295Z,99625.81
2023-01-05T21:02:22.914Z,99627.88
2023-01-05T21:04:52.484Z,99632.78
2023-01-05T21:07:20.514Z,99622.25
2023-01-05T21:10:19.921Z,99627.78
2023-01-05T21:32:57.086Z,99629.03
2023-01-05T21:35:53.917Z,99625.31
2023-01-05T21:38:22.768Z,99628.47
2023-01-05T21:41:03.694Z,99627.91
2023-01-05T21:43:33.270Z,99637.72
2023-01-05T21:46:07.446Z,99630.81
2023-01-05T21:48:36.234Z,99630.88
2023-01-05T21:51:25.453Z,99630.16
2023-01-05T21:54:12.009Z,99635.28
2023-01-05T21:56:40.380Z,99635.78
2023-01-05T21:59:10.375Z,99630.88
2023-01-05T22:01:40.880Z,99637.44
2023-01-05T22:04:09.927Z,99641.00
2023-01-05T22:06:38.948Z,99634.38
2023-01-05T22:09:08.188Z,99636.50
2023-01-05T22:11:39.924Z,99642.41
2023-01-05T22:14:08.023Z,99638.19
2023-01-05T22:16:36.878Z,99643.13
2023-01-05T22:19:05.121Z,99643.41
2023-01-05T22:21:34.185Z,99646.50
2023-01-05T22:24:05.476Z,99642.03
2023-01-05T22:26:34.484Z,99645.13
2023-01-05T22:29:10.757Z,99645.75
2023-01-05T22:32:00.590Z,99644.47
2023-01-05T22:34:30.746Z,99643.34
2023-01-05T22:37:00.357Z,99643.97
2023-01-05T22:39:29.744Z,99647.06
2023-01-05T22:42:03.848Z,99649.88
2023-01-05T22:44:57.210Z,99653.31
2023-01-05T22:47:32.000Z,99658.66
2023-01-05T22:50:05.045Z,99658.19
2023-01-05T22:52:39.719Z,99643.25
2023-01-05T22:55:24.174Z,99657.53
2023-01-05T22:58:00.377Z,99660.81
2023-01-05T23:03:45.547Z,99647.44
2023-01-05T23:06:16.749Z,99651.19
2023-01-05T23:08:50.523Z,99650.69
2023-01-05T23:11:31.964Z,99652.88
2023-01-05T23:14:03.984Z,99633.81
2023-01-05T23:16:33.511Z,99656.31
2023-01-05T23:19:06.230Z,99651.53
2023-01-05T23:21:36.443Z,99660.16
2023-01-05T23:24:09.180Z,99654.53
2023-01-05T23:26:40.244Z,99662.66
2023-01-05T23:29:08.417Z,99663.59
2023-01-05T23:31:36.269Z,99662.28
2023-01-05T23:34:04.509Z,99648.19
2023-01-05T23:36:33.001Z,99649.59
2023-01-05T23:39:00.784Z,99659.66
2023-01-05T23:41:29.009Z,99654.44
2023-01-05T23:44:11.976Z,99660.50
2023-01-05T23:46:40.506Z,99658.84
2023-01-05T23:49:09.037Z,99663.88
2023-01-05T23:51:39.697Z,99648.75
2023-01-05T23:54:10.942Z,99645.56
2023-01-05T23:56:47.238Z,99645.84
2023-01-05T23:59:30.337Z,99652.22
